Time;durP1;ratioP1;P1;durP2;ratioP2;P2;SDS_P1;SDS_P2;PMS_P1;PMS_P2;Temp;Humidity;BMP_temperature;BMP_pressure;BME280_temperature;BME280_humidity;BME280_pressure;Samples;Min_cycle;Max_cycle;Signal;HPM_P1;HPM_P2
2022/03/24 00:01:30;;;;;;;43.70;30.40;;;;;;;7.54;55.55;103002.50;10380794;28;20449;-73
2022/03/24 00:06:30;;;;;;;55.58;33.70;;;;;;;7.43;55.58;102998.84;10383216;28;20045;-74
2022/03/24 00:11:31;;;;;;;54.22;29.95;;;;;;;7.42;55.30;102998.97;10382596;28;20448;-73
2022/03/24 00:16:31;;;;;;;56.58;31.27;;;;;;;7.35;55.58;103004.00;10382283;28;20038;-72
2022/03/24 00:21:32;;;;;;;51.30;33.35;;;;;;;7.32;57.71;103003.41;10382114;28;20061;-73
2022/03/24 00:26:32;;;;;;;52.08;32.67;;;;;;;7.39;57.95;103000.06;10381945;28;20034;-73
2022/03/24 00:31:33;;;;;;;55.88;33.15;;;;;;;7.39;57.43;102999.22;10379976;28;20457;-73
2022/03/24 00:36:34;;;;;;;62.85;34.22;;;;;;;7.38;57.52;102992.97;10381098;28;20058;-73
2022/03/24 00:41:35;;;;;;;60.75;36.97;;;;;;;7.37;57.68;102998.47;10381237;28;20038;-73
2022/03/24 00:46:36;;;;;;;60.08;36.88;;;;;;;7.28;57.85;102991.16;10380675;28;20041;-73
2022/03/24 00:51:36;;;;;;;71.47;38.63;;;;;;;7.18;58.01;102993.75;10380376;28;20042;-73
2022/03/24 00:56:36;;;;;;;62.20;38.20;;;;;;;7.14;58.46;102989.56;10380614;28;20049;-73
2022/03/24 01:01:39;;;;;;;55.58;35.20;;;;;;;7.02;58.27;102986.03;10380647;28;20141;-73
2022/03/24 01:06:39;;;;;;;62.72;38.03;;;;;;;6.95;59.26;102984.78;10379782;28;20048;-73
2022/03/24 01:11:40;;;;;;;74.30;40.80;;;;;;;7.03;60.16;102971.59;10380148;28;20449;-73
2022/03/24 01:16:41;;;;;;;72.85;43.55;;;;;;;6.97;59.51;102978.31;10379650;28;20030;-73
2022/03/24 01:21:41;;;;;;;77.28;40.83;;;;;;;6.83;59.17;102972.31;10380256;28;20052;-72
2022/03/24 01:26:42;;;;;;;80.50;44.85;;;;;;;6.70;59.58;102965.22;10377790;28;20034;-72
2022/03/24 01:31:43;;;;;;;77.95;44.53;;;;;;;6.64;59.60;102962.16;10379269;28;20125;-72
2022/03/24 01:36:43;;;;;;;85.45;45.38;;;;;;;6.48;59.65;102949.91;10378563;28;20030;-73
2022/03/24 01:41:44;;;;;;;79.85;46.22;;;;;;;6.46;60.11;102956.38;10377968;28;20037;-73
2022/03/24 01:47:08;;;;;;;85.20;47.55;;;;;;;6.47;60.88;102963.47;10377475;28;20022;-73
2022/03/24 01:52:12;;;;;;;69.53;42.50;;;;;;;6.42;61.06;102954.91;10376097;28;20065;-74
2022/03/24 01:57:14;;;;;;;85.78;45.88;;;;;;;6.30;61.07;102959.41;10377702;28;20088;-72
2022/03/24 02:02:14;;;;;;;63.95;43.25;;;;;;;6.34;61.48;102951.94;10377052;28;20034;-73
2022/03/24 02:07:15;;;;;;;64.47;43.25;;;;;;;6.21;61.51;102949.34;10376163;28;20026;-72
2022/03/24 02:12:16;;;;;;;70.30;45.65;;;;;;;6.13;61.45;102947.28;10376071;28;20045;-72
2022/03/24 02:17:19;;;;;;;69.13;42.30;;;;;;;6.07;61.70;102953.13;10360539;28;20228;-72
2022/03/24 02:22:19;;;;;;;78.20;43.75;;;;;;;5.97;62.23;102944.91;10374727;28;20026;-72
2022/03/24 02:27:22;;;;;;;91.93;47.03;;;;;;;5.96;62.38;102935.09;10376165;28;20038;-73
2022/03/24 02:32:22;;;;;;;75.07;44.80;;;;;;;5.92;61.87;102936.28;10376868;28;20437;-72
2022/03/24 02:37:24;;;;;;;82.45;47.38;;;;;;;5.82;62.15;102938.81;10375861;28;20038;-73
2022/03/24 02:42:26;;;;;;;79.70;50.60;;;;;;;5.72;62.19;102945.00;10376748;28;20030;-72
2022/03/24 02:47:27;;;;;;;74.85;48.15;;;;;;;5.68;62.33;102944.38;10375168;28;20037;-73
2022/03/24 02:52:28;;;;;;;79.72;52.95;;;;;;;5.68;62.89;102939.00;10373723;28;20127;-72
2022/03/24 02:57:30;;;;;;;89.93;51.60;;;;;;;5.72;63.11;102932.41;10375150;28;20123;-72
2022/03/24 03:02:30;;;;;;;80.82;49.80;;;;;;;5.79;63.47;102939.03;10376613;28;20048;-73
2022/03/24 03:07:31;;;;;;;79.40;47.83;;;;;;;5.79;63.87;102935.50;10376385;28;20042;-72
2022/03/24 03:12:31;;;;;;;99.20;54.17;;;;;;;5.79;64.29;102936.34;10373569;28;20052;-73
2022/03/24 03:17:34;;;;;;;75.65;48.05;;;;;;;5.76;64.01;102938.41;10375630;28;20034;-72
2022/03/24 03:22:34;;;;;;;88.60;47.47;;;;;;;5.65;64.04;102941.94;10374745;28;20049;-73
2022/03/24 03:27:35;;;;;;;89.80;54.53;;;;;;;5.58;64.10;102941.53;10374611;28;20385;-72
2022/03/24 03:32:35;;;;;;;84.53;53.45;;;;;;;5.59;64.57;102942.38;10373132;28;20120;-72
2022/03/24 03:37:38;;;;;;;93.38;57.08;;;;;;;5.61;64.75;102943.09;10375043;28;20088;-72
2022/03/24 03:42:38;;;;;;;95.70;52.63;;;;;;;5.58;64.72;102940.66;10375102;28;20041;-73
2022/03/24 03:47:39;;;;;;;90.75;58.80;;;;;;;5.65;66.15;102933.88;10374145;28;20034;-73
2022/03/24 03:52:39;;;;;;;98.10;60.58;;;;;;;5.86;67.13;102935.88;10373881;28;20062;-72
2022/03/24 03:57:40;;;;;;;93.50;56.25;;;;;;;5.89;65.93;102930.28;10375468;28;20382;-72
2022/03/24 04:02:42;;;;;;;106.03;59.78;;;;;;;5.73;65.88;102931.44;10373584;28;20038;-73
2022/03/24 04:07:42;;;;;;;86.03;55.03;;;;;;;5.65;65.76;102935.66;10372222;28;20608;-72
2022/03/24 04:12:43;;;;;;;93.03;56.17;;;;;;;5.55;65.95;102931.00;10373995;28;20190;-73
2022/03/24 04:17:44;;;;;;;90.75;54.15;;;;;;;5.44;65.92;102936.31;10373927;28;20436;-72
2022/03/24 04:22:44;;;;;;;89.00;54.45;;;;;;;5.33;65.66;102945.19;10372297;28;20096;-73
2022/03/24 04:27:44;;;;;;;102.68;55.22;;;;;;;5.28;66.07;102933.03;10373809;28;20030;-73
2022/03/24 04:32:45;;;;;;;92.97;54.75;;;;;;;5.23;66.00;102937.88;10373577;28;20030;-73
2022/03/24 04:37:45;;;;;;;88.93;54.40;;;;;;;5.19;66.46;102933.72;10372193;28;20030;-73
2022/03/24 04:42:52;;;;;;;90.00;57.47;;;;;;;5.17;66.48;102943.69;10373213;28;20061;-73
2022/03/24 04:47:53;;;;;;;;;;;;;;;5.14;66.88;102944.81;10381886;28;20060;-72
2022/03/24 04:52:53;;;;;;;92.60;54.80;;;;;;;5.12;68.61;102952.09;10379950;28;19928;-73
2022/03/24 04:57:53;;;;;;;85.50;53.22;;;;;;;5.16;67.54;102961.66;10379047;28;20112;-72
2022/03/24 05:02:54;;;;;;;92.90;53.45;;;;;;;5.08;66.89;102953.31;10379913;28;20080;-73
2022/03/24 05:07:54;;;;;;;102.63;55.40;;;;;;;5.01;67.02;102960.94;10379753;28;20030;-73
2022/03/24 05:12:55;;;;;;;102.78;55.38;;;;;;;5.01;68.32;102965.44;10379678;28;20038;-72
2022/03/24 05:17:55;;;;;;;94.18;59.20;;;;;;;5.13;68.62;102967.25;10394939;28;20373;-73
2022/03/24 05:22:55;;;;;;;92.95;54.10;;;;;;;5.11;68.10;102964.69;10380334;28;20393;-72
2022/03/24 05:27:56;;;;;;;106.40;60.08;;;;;;;5.19;68.04;102966.81;10380300;28;20029;-72
2022/03/24 05:32:56;;;;;;;95.63;58.97;;;;;;;5.28;69.12;102970.66;10377725;28;20045;-72
2022/03/24 05:37:57;;;;;;;89.80;55.22;;;;;;;5.40;79.53;102961.69;10378660;28;20245;-72
2022/03/24 05:42:57;;;;;;;96.20;57.17;;;;;;;5.54;74.27;102963.34;10380040;28;20361;-73
2022/03/24 05:47:58;;;;;;;87.47;53.90;;;;;;;5.46;72.21;102966.63;10378335;28;20022;-72
2022/03/24 05:52:58;;;;;;;90.57;57.53;;;;;;;5.44;71.61;102967.69;10305578;28;20045;-71
2022/03/24 05:58:00;;;;;;;89.30;53.08;;;;;;;5.53;71.43;102962.50;10421865;28;20046;-73
2022/03/24 06:03:01;;;;;;;95.88;51.83;;;;;;;5.71;71.44;102968.34;10418574;28;20033;-72
2022/03/24 06:08:03;;;;;;;86.90;53.60;;;;;;;5.87;70.88;102965.38;10418356;28;20029;-72
2022/03/24 06:13:04;;;;;;;91.22;56.47;;;;;;;6.06;70.50;102964.81;10418092;28;20025;-72
2022/03/24 06:18:04;;;;;;;94.28;56.58;;;;;;;6.43;72.40;102968.22;10355495;28;20729;-72
2022/03/24 06:23:04;;;;;;;92.72;56.75;;;;;;;7.21;75.15;102967.41;10388682;28;20049;-73
2022/03/24 06:28:05;;;;;;;116.35;61.67;;;;;;;7.99;76.03;102957.34;10377009;28;20084;-72
2022/03/24 06:33:05;;;;;;;90.60;57.22;;;;;;;8.85;71.31;102969.69;10375812;28;20103;-73
2022/03/24 06:38:07;;;;;;;99.53;56.10;;;;;;;9.68;69.54;102967.66;10375351;28;20066;-73
2022/03/24 06:43:08;;;;;;;81.13;52.13;;;;;;;10.40;68.32;102968.19;10378092;28;20076;-73
2022/03/24 06:48:09;;;;;;;81.13;48.72;;;;;;;11.23;67.09;102971.91;10358289;28;20076;-73
2022/03/24 06:53:09;;;;;;;75.07;42.80;;;;;;;11.95;66.54;102963.84;10375406;28;20145;-73
2022/03/24 06:58:10;;;;;;;67.65;44.03;;;;;;;12.49;65.82;102961.91;10374043;28;20537;-73
2022/03/24 07:03:10;;;;;;;68.25;39.70;;;;;;;13.24;64.88;102960.28;10376676;28;20053;-74
2022/03/24 07:08:11;;;;;;;59.92;39.78;;;;;;;14.05;63.58;102966.88;10377559;28;20061;-73
2022/03/24 07:13:11;;;;;;;58.10;38.47;;;;;;;14.80;61.62;102968.50;10375431;28;20069;-74
2022/03/24 07:18:12;;;;;;;74.03;40.25;;;;;;;15.33;60.71;102967.78;10374111;28;20037;-74
2022/03/24 07:23:13;;;;;;;57.95;36.55;;;;;;;15.83;59.67;102962.91;10358421;28;20343;-74
2022/03/24 07:28:14;;;;;;;61.00;35.40;;;;;;;16.28;58.96;102972.09;10374849;28;20120;-74
2022/03/24 07:33:14;;;;;;;52.38;33.75;;;;;;;16.49;58.41;102961.28;10375288;28;20041;-74
2022/03/24 07:38:15;;;;;;;51.10;32.90;;;;;;;17.05;56.90;102960.00;10373759;28;20041;-74
2022/03/24 07:43:15;;;;;;;59.17;34.80;;;;;;;17.28;56.81;102957.13;10373671;28;20038;-73
2022/03/24 07:48:17;;;;;;;65.60;37.35;;;;;;;17.70;56.04;102958.25;10374815;28;20034;-74
2022/03/24 07:53:36;;;;;;;48.10;34.00;;;;;;;17.74;55.90;102965.91;10372337;28;20061;-74
2022/03/24 07:58:38;;;;;;;65.35;35.83;;;;;;;18.38;54.00;102975.13;10374611;28;20030;-74
2022/03/24 08:03:39;;;;;;;53.05;30.38;;;;;;;18.65;53.98;102977.03;10374170;28;20041;-74
2022/03/24 08:08:39;;;;;;;48.63;32.83;;;;;;;19.15;53.02;102980.53;10374013;28;20044;-75
2022/03/24 08:13:40;;;;;;;49.50;29.13;;;;;;;19.72;51.58;102987.53;10373527;28;20030;-75
2022/03/24 08:18:40;;;;;;;51.10;29.90;;;;;;;19.95;50.17;102976.13;10373204;28;20100;-75
2022/03/24 08:23:41;;;;;;;38.58;27.73;;;;;;;20.49;49.06;102984.41;10382950;28;20042;-75
2022/03/24 08:28:41;;;;;;;42.92;27.73;;;;;;;20.70;48.12;102988.84;10381024;28;20041;-74
2022/03/24 08:33:42;;;;;;;35.30;26.58;;;;;;;20.54;46.15;102998.38;10380502;28;20064;-76
2022/03/24 08:38:42;;;;;;;36.60;27.13;;;;;;;20.39;45.74;102998.59;10380301;28;20030;-75
2022/03/24 08:43:42;;;;;;;38.05;23.80;;;;;;;20.60;44.14;102995.63;10381503;28;20042;-75
2022/03/24 08:48:43;;;;;;;42.88;25.13;;;;;;;20.59;40.29;103004.97;10381354;28;20038;-74
2022/03/24 08:53:43;;;;;;;36.35;23.42;;;;;;;20.50;43.86;103005.34;10380942;28;20132;-75
2022/03/24 08:58:44;;;;;;;34.88;23.08;;;;;;;21.40;42.69;102997.34;10379326;28;20058;-75
2022/03/24 09:03:48;;;;;;;26.02;22.08;;;;;;;22.12;42.92;103007.09;10379681;28;20120;-75
2022/03/24 09:08:49;;;;;;;51.58;24.95;;;;;;;22.55;41.70;103003.56;10378323;28;20034;-75
2022/03/24 09:13:50;;;;;;;30.70;21.70;;;;;;;22.69;31.13;103018.13;10378312;28;20120;-75
2022/03/24 09:18:50;;;;;;;38.70;21.48;;;;;;;22.52;38.25;103009.53;10377933;28;20030;-74
2022/03/24 09:23:51;;;;;;;31.77;19.48;;;;;;;23.06;38.42;103007.09;10380166;28;20393;-76
2022/03/24 09:28:52;;;;;;;31.38;22.27;;;;;;;23.24;36.88;103011.81;10379852;28;20052;-75
2022/03/24 09:33:52;;;;;;;26.88;21.63;;;;;;;23.14;36.86;103010.41;10378692;28;20041;-75
2022/03/24 09:38:53;;;;;;;29.35;20.77;;;;;;;23.97;36.72;103016.38;10378688;28;20061;-74
2022/03/24 09:43:53;;;;;;;22.38;19.40;;;;;;;24.29;37.45;103005.84;10377284;28;20183;-75
2022/03/24 09:48:54;;;;;;;34.10;18.48;;;;;;;25.01;35.91;103003.66;10376896;28;20022;-75
2022/03/24 09:53:55;;;;;;;30.15;18.27;;;;;;;25.37;32.43;102993.38;10376229;28;20072;-75
2022/03/24 09:58:55;;;;;;;26.88;17.55;;;;;;;25.32;33.19;103001.59;10378248;28;20109;-75
2022/03/24 10:04:14;;;;;;;26.42;15.68;;;;;;;25.67;34.96;103001.44;10377912;28;20064;-75
2022/03/24 10:09:14;;;;;;;18.90;15.35;;;;;;;26.17;34.09;102999.88;10377111;28;20117;-75
2022/03/24 10:14:22;;;;;;;20.73;15.95;;;;;;;25.96;27.90;103001.44;10376148;28;20034;-75
2022/03/24 10:19:27;;;;;;;20.73;14.98;;;;;;;26.08;32.15;102993.91;10377692;28;20037;-75
2022/03/24 10:24:27;;;;;;;16.77;14.68;;;;;;;26.03;28.58;102999.34;10376672;28;20034;-75
2022/03/24 10:29:28;;;;;;;17.65;13.98;;;;;;;25.61;22.59;103001.59;10377104;28;20039;-74
2022/03/24 10:34:33;;;;;;;17.83;14.65;;;;;;;24.11;22.35;103006.75;10376699;28;20060;-74
2022/03/24 10:39:37;;;;;;;17.63;14.18;;;;;;;23.72;24.31;103003.53;10375397;28;20393;-74
2022/03/24 10:44:58;;;;;;;16.88;13.70;;;;;;;24.45;22.61;103007.09;10374656;28;20053;-75
2022/03/24 10:50:24;;;;;;;23.77;13.90;;;;;;;23.90;22.39;102999.88;10375309;28;20030;-75
2022/03/24 10:55:29;;;;;;;28.33;15.55;;;;;;;23.39;23.29;103009.50;10374409;28;20053;-75
2022/03/24 11:00:30;;;;;;;29.52;13.73;;;;;;;24.21;25.16;102995.94;10374532;28;20381;-74
2022/03/24 11:05:31;;;;;;;20.75;13.80;;;;;;;24.81;23.77;103004.06;10359067;28;20133;-75
2022/03/24 11:10:33;;;;;;;19.50;15.02;;;;;;;25.65;25.15;102989.75;10374922;28;20045;-75
2022/03/24 11:15:39;;;;;;;22.00;15.68;;;;;;;26.12;26.52;102985.91;10373660;28;20396;-75
2022/03/24 11:20:39;;;;;;;19.43;13.00;;;;;;;26.61;24.08;102988.91;10376099;28;20034;-75
2022/03/24 11:25:40;;;;;;;21.45;12.88;;;;;;;26.79;26.09;102983.06;10373571;28;20045;-76
2022/03/24 11:30:41;;;;;;;22.50;12.52;;;;;;;27.05;27.25;102973.13;10373175;28;20029;-75
2022/03/24 11:35:41;;;;;;;18.88;13.10;;;;;;;26.77;25.33;102971.38;10375962;28;20139;-75
2022/03/24 11:40:42;;;;;;;13.07;10.85;;;;;;;26.60;25.65;102973.34;10358427;28;20030;-75
2022/03/24 11:45:48;;;;;;;21.02;11.32;;;;;;;26.54;21.40;102971.59;10375829;28;20073;-75
2022/03/24 11:50:52;;;;;;;19.83;11.10;;;;;;;26.03;24.20;102965.19;10373885;28;20030;-75
2022/03/24 11:55:58;;;;;;;17.63;8.82;;;;;;;26.50;21.77;102964.88;10377589;28;20050;-75
2022/03/24 12:01:25;;;;;;;13.52;10.55;;;;;;;25.51;26.73;102960.63;10382146;28;20026;-75
2022/03/24 12:06:41;;;;;;;18.13;11.60;;;;;;;25.53;24.19;102950.13;10380907;28;20033;-75
2022/03/24 12:11:50;;;;;;;16.88;12.15;;;;;;;25.84;26.17;102945.16;10380025;28;20359;-75
2022/03/24 12:16:51;;;;;;;15.05;10.32;;;;;;;25.53;22.34;102941.81;10381190;28;20367;-75
2022/03/24 12:21:52;;;;;;;20.13;9.77;;;;;;;25.79;26.49;102933.94;10381395;28;20038;-76
2022/03/24 12:26:54;;;;;;;14.77;7.68;;;;;;;26.46;26.78;102933.94;10379125;28;20469;-75
2022/03/24 12:31:58;;;;;;;19.98;11.30;;;;;;;26.47;24.94;102935.63;10381956;28;20057;-75
2022/03/24 12:37:00;;;;;;;10.48;9.10;;;;;;;24.35;26.16;102942.03;10379413;28;20041;-76
2022/03/24 12:42:11;;;;;;;20.20;11.15;;;;;;;22.05;29.56;102929.91;10363737;28;20064;-75
2022/03/24 12:47:11;;;;;;;19.65;11.60;;;;;;;22.07;28.57;102926.91;10380099;28;20026;-74
2022/03/24 12:52:14;;;;;;;18.17;11.68;;;;;;;22.47;28.56;102926.56;10379742;28;20081;-77
2022/03/24 12:57:34;;;;;;;20.42;11.38;;;;;;;23.03;27.01;102917.22;10382107;28;20082;-75
2022/03/24 13:02:35;;;;;;;15.30;11.63;;;;;;;23.80;25.13;102917.44;10378382;28;20030;-74
2022/03/24 13:07:36;;;;;;;18.17;11.90;;;;;;;23.75;26.30;102916.47;10379092;28;20038;-75
2022/03/24 13:12:37;;;;;;;27.42;12.82;;;;;;;24.56;28.88;102900.97;10377898;28;20112;-75
2022/03/24 13:17:39;;;;;;;22.83;11.15;;;;;;;25.32;29.24;102912.00;10377693;28;20531;-75
2022/03/24 13:22:40;;;;;;;15.30;10.30;;;;;;;25.01;26.86;102897.50;10379065;28;20091;-75
2022/03/24 13:27:45;;;;;;;15.75;12.75;;;;;;;24.85;26.86;102899.09;10381221;28;20034;-75
2022/03/24 13:32:49;;;;;;;17.63;11.98;;;;;;;24.94;26.17;102889.31;10377239;28;20034;-76
2022/03/24 13:37:51;;;;;;;19.02;8.93;;;;;;;24.03;28.80;102890.88;10378233;28;20065;-75
2022/03/24 13:42:52;;;;;;;15.50;10.88;;;;;;;24.16;28.00;102890.63;10378481;28;20095;-75
2022/03/24 13:47:59;;;;;;;12.63;8.60;;;;;;;23.69;28.26;102893.34;10377400;28;20038;-75
2022/03/24 13:52:59;;;;;;;14.85;7.40;;;;;;;24.11;30.43;102885.81;10376967;28;20083;-75
2022/03/24 13:58:01;;;;;;;12.88;7.53;;;;;;;24.01;27.86;102879.19;10376852;28;20563;-74
2022/03/24 14:03:21;;;;;;;14.63;8.05;;;;;;;22.94;30.97;102877.16;10376550;28;20049;-75
2022/03/24 14:08:25;;;;;;;24.15;16.65;;;;;;;22.01;30.62;102884.50;10376197;28;20297;-75
2022/03/24 14:13:28;;;;;;;38.15;18.08;;;;;;;22.12;30.99;102882.09;10376395;28;20045;-75
2022/03/24 14:18:29;;;;;;;20.58;17.88;;;;;;;21.41;31.56;102867.59;10375478;28;20037;-75
2022/03/24 14:23:34;;;;;;;27.48;18.45;;;;;;;21.89;31.44;102864.25;10375472;28;20062;-75
2022/03/24 14:28:42;;;;;;;31.05;19.38;;;;;;;21.90;30.89;102859.56;10375006;28;20446;-75
2022/03/24 14:33:46;;;;;;;43.38;19.52;;;;;;;22.53;31.61;102853.88;10375560;28;20038;-75
2022/03/24 14:39:18;;;;;;;23.60;19.48;;;;;;;22.58;30.28;102853.16;10374836;28;20087;-75
2022/03/24 14:44:19;;;;;;;32.88;21.30;;;;;;;22.38;30.03;102856.16;10376864;28;20031;-75
2022/03/24 14:49:20;;;;;;;29.33;20.08;;;;;;;22.01;31.15;102853.31;10376814;28;20037;-75
2022/03/24 14:54:20;;;;;;;30.65;18.42;;;;;;;21.59;31.42;102845.59;10374644;28;20050;-75
2022/03/24 14:59:20;;;;;;;33.13;21.05;;;;;;;21.63;32.44;102848.75;10373898;28;20041;-75
2022/03/24 15:04:21;;;;;;;40.65;19.75;;;;;;;21.34;32.16;102844.69;10373935;28;20390;-74
2022/03/24 15:09:22;;;;;;;24.80;18.98;;;;;;;20.69;33.39;102838.50;10374887;28;20034;-75
2022/03/24 15:19:42;;;;;;;25.48;19.25;;;;;;;19.56;33.81;102838.59;10374469;28;20038;-75
2022/03/24 15:24:42;;;;;;;33.58;21.88;;;;;;;19.35;34.03;102842.41;10373626;28;20037;-74
2022/03/24 15:29:43;;;;;;;33.08;21.50;;;;;;;19.05;34.59;102848.25;10373019;28;20038;-74
2022/03/24 15:34:43;;;;;;;36.40;23.73;;;;;;;18.79;34.91;102847.09;10373300;28;20058;-74
2022/03/24 15:39:44;;;;;;;40.97;20.48;;;;;;;18.42;35.43;102842.88;10375802;28;20045;-74
2022/03/24 15:44:45;;;;;;;35.97;19.88;;;;;;;18.16;35.79;102843.56;10373252;28;20505;-74
2022/03/24 15:49:45;;;;;;;38.63;21.50;;;;;;;18.15;36.16;102852.81;10375305;28;20041;-74
2022/03/24 15:54:46;;;;;;;22.52;18.63;;;;;;;18.01;36.31;102862.00;10374595;28;20065;-74
2022/03/24 15:59:46;;;;;;;27.20;18.35;;;;;;;17.87;36.58;102859.16;10373421;28;20230;-74
2022/03/24 16:04:47;;;;;;;26.15;16.92;;;;;;;17.69;37.04;102858.75;10356047;28;20093;-74
2022/03/24 16:09:47;;;;;;;32.75;19.20;;;;;;;17.52;37.83;102858.19;10372258;28;20038;-73
2022/03/24 16:14:47;;;;;;;44.58;19.05;;;;;;;17.40;37.66;102851.53;10374327;28;20041;-74
2022/03/24 16:19:48;;;;;;;32.38;19.42;;;;;;;17.23;39.24;102858.28;10355966;28;20454;-74
2022/03/24 16:24:48;;;;;;;26.17;17.42;;;;;;;17.11;38.43;102866.19;10374572;28;20087;-74
2022/03/24 16:29:49;;;;;;;30.92;18.27;;;;;;;17.02;38.22;102876.38;10373975;28;20030;-74
2022/03/24 16:34:49;;;;;;;36.30;18.90;;;;;;;16.82;39.52;102869.84;10374964;28;20038;-74
2022/03/24 16:39:50;;;;;;;33.05;19.83;;;;;;;16.69;39.66;102868.59;10373440;28;20116;-74
2022/03/24 16:44:50;;;;;;;45.00;19.58;;;;;;;16.50;40.18;102872.75;10379213;28;20124;-74
2022/03/24 16:49:50;;;;;;;28.02;16.52;;;;;;;16.37;39.98;102868.94;10381232;28;20034;-74
2022/03/24 16:54:51;;;;;;;32.97;20.27;;;;;;;16.22;39.65;102877.16;10363465;28;20054;-74
2022/03/24 16:59:52;;;;;;;50.28;19.23;;;;;;;16.09;38.89;102880.53;10378950;28;20500;-73
2022/03/24 17:04:52;;;;;;;52.78;20.90;;;;;;;15.92;38.70;102882.56;10379462;28;20037;-74
2022/03/24 17:09:54;;;;;;;32.55;19.40;;;;;;;15.78;39.23;102894.31;10380302;28;20034;-74
2022/03/24 17:14:54;;;;;;;39.53;23.05;;;;;;;15.57;41.22;102892.19;10361985;28;20088;-75
2022/03/24 17:19:54;;;;;;;46.90;22.85;;;;;;;15.42;40.50;102892.16;10379485;28;20370;-74
2022/03/24 17:24:55;;;;;;;46.83;23.65;;;;;;;15.28;40.86;102895.63;10379202;28;20088;-74
2022/03/24 17:29:56;;;;;;;43.72;24.15;;;;;;;15.09;41.96;102889.63;10378973;28;20062;-74
2022/03/24 17:34:56;;;;;;;46.05;27.23;;;;;;;14.90;42.93;102890.06;10378368;28;20038;-74
2022/03/24 17:39:57;;;;;;;38.50;24.83;;;;;;;14.78;42.79;102910.56;10377547;28;20034;-73
2022/03/24 17:44:57;;;;;;;48.15;24.38;;;;;;;14.70;42.37;102913.31;10379708;28;20056;-74
2022/03/24 17:49:58;;;;;;;42.90;25.88;;;;;;;14.56;44.88;102918.47;10378799;28;20034;-73
2022/03/24 17:54:58;;;;;;;64.57;26.55;;;;;;;14.38;43.37;102925.97;10377893;28;20050;-74
2022/03/24 17:59:59;;;;;;;53.20;27.10;;;;;;;14.17;44.77;102924.66;10377580;28;20441;-74
2022/03/24 18:04:59;;;;;;;42.83;26.85;;;;;;;13.98;45.50;102933.19;10378212;28;20077;-74
2022/03/24 18:10:01;;;;;;;60.67;29.55;;;;;;;13.78;43.93;102929.06;10377461;28;20030;-73
2022/03/24 18:15:02;;;;;;;54.85;30.63;;;;;;;13.54;44.86;102932.63;10376010;28;20041;-73
2022/03/24 18:20:04;;;;;;;65.25;31.42;;;;;;;13.34;46.36;102932.94;10375906;28;20394;-73
2022/03/24 18:25:05;;;;;;;63.60;35.15;;;;;;;13.18;46.41;102933.69;10377427;28;20034;-74
2022/03/24 18:30:07;;;;;;;69.50;35.70;;;;;;;13.00;47.04;102938.38;10377206;28;20115;-74
2022/03/24 18:35:08;;;;;;;59.10;33.97;;;;;;;12.84;45.72;102925.56;10376693;28;20478;-73
2022/03/24 18:40:09;;;;;;;56.70;34.33;;;;;;;12.62;45.40;102937.84;10377526;28;20029;-73
2022/03/24 18:45:10;;;;;;;53.90;34.80;;;;;;;12.46;45.34;102945.91;10376857;28;20038;-74
2022/03/24 18:50:11;;;;;;;77.53;39.45;;;;;;;12.31;46.11;102945.63;10375565;28;20120;-72
2022/03/24 18:55:11;;;;;;;63.63;34.83;;;;;;;12.18;45.80;102946.06;10375163;28;20133;-74
2022/03/24 19:00:12;;;;;;;67.32;36.92;;;;;;;12.04;46.20;102944.75;10378133;28;20048;-73
2022/03/24 19:05:13;;;;;;;73.70;39.33;;;;;;;11.94;45.74;102951.31;10377329;28;20030;-73
2022/03/24 19:10:13;;;;;;;72.75;35.35;;;;;;;11.82;46.32;102946.06;10374360;28;20521;-73
2022/03/24 19:15:14;;;;;;;68.00;36.90;;;;;;;11.72;46.45;102944.44;10373589;28;20116;-73
2022/03/24 19:20:14;;;;;;;59.20;36.85;;;;;;;11.61;46.11;102951.81;10377059;28;20038;-73
2022/03/24 19:25:14;;;;;;;69.25;40.13;;;;;;;11.48;46.72;102947.75;10374872;28;20537;-73
2022/03/24 19:30:15;;;;;;;72.05;39.97;;;;;;;11.39;46.90;102954.94;10376537;28;20033;-73
2022/03/24 19:35:15;;;;;;;72.00;38.25;;;;;;;11.26;47.27;102958.00;10374019;28;20128;-74
2022/03/24 19:40:16;;;;;;;75.85;38.53;;;;;;;11.16;46.99;102955.34;10374399;28;20382;-73
2022/03/24 19:45:18;;;;;;;64.32;39.45;;;;;;;11.02;47.58;102963.16;10386147;28;20080;-74
2022/03/24 19:50:18;;;;;;;76.80;42.45;;;;;;;10.89;48.06;102958.94;10413912;28;20068;-74
2022/03/24 19:55:20;;;;;;;86.35;43.40;;;;;;;10.80;48.03;102959.81;10413120;28;20110;-74
2022/03/24 20:00:20;;;;;;;74.53;41.92;;;;;;;10.65;48.47;102962.16;10414738;28;20029;-74
2022/03/24 20:05:25;;;;;;;82.22;42.90;;;;;;;10.55;48.59;102976.72;10397079;28;20117;-74
2022/03/24 20:10:27;;;;;;;77.53;41.92;;;;;;;10.46;49.16;102973.03;10413166;28;20041;-74
2022/03/24 20:15:27;;;;;;;71.53;39.28;;;;;;;10.35;49.68;102976.78;10418427;28;20068;-72
2022/03/24 20:20:28;;;;;;;84.72;41.25;;;;;;;10.32;49.58;102984.34;10422390;28;20071;-74
2022/03/24 20:25:28;;;;;;;72.60;43.75;;;;;;;10.23;50.17;102986.03;10404163;28;20478;-75
2022/03/24 20:30:28;;;;;;;77.95;45.72;;;;;;;10.12;51.35;102980.78;10422342;28;20030;-73
2022/03/24 20:35:31;;;;;;;83.22;42.55;;;;;;;10.05;52.27;102998.56;10421646;28;20437;-73
2022/03/24 20:40:32;;;;;;;69.28;43.88;;;;;;;9.89;51.26;102989.19;10421934;28;20116;-74
2022/03/24 20:45:34;;;;;;;66.80;43.33;;;;;;;9.89;52.29;103001.81;10421582;28;20116;-72
2022/03/24 20:50:36;;;;;;;70.22;42.72;;;;;;;9.91;53.90;103002.56;10421212;28;20373;-72
2022/03/24 20:55:37;;;;;;;66.40;42.80;;;;;;;9.88;52.81;102995.56;10421347;28;20378;-73
2022/03/24 21:00:37;;;;;;;85.45;44.92;;;;;;;9.82;55.44;103003.41;10421467;28;20117;-72
2022/03/24 21:05:38;;;;;;;87.50;47.42;;;;;;;9.81;54.77;103007.97;10406465;28;20177;-72
2022/03/24 21:10:39;;;;;;;84.90;48.78;;;;;;;9.73;54.09;103005.09;10419820;28;20033;-73
2022/03/24 21:15:39;;;;;;;76.68;49.15;;;;;;;9.63;54.54;102996.97;10420808;28;20389;-73
2022/03/24 21:20:41;;;;;;;78.68;49.05;;;;;;;9.55;55.28;103000.38;10420146;28;20116;-72
2022/03/24 21:25:41;;;;;;;94.53;48.22;;;;;;;9.47;55.21;102996.66;10419517;28;20040;-73
2022/03/24 21:30:42;;;;;;;77.20;45.17;;;;;;;9.40;55.37;103006.31;10421520;28;20037;-71
2022/03/24 21:35:42;;;;;;;87.05;49.45;;;;;;;9.35;56.86;103009.44;10419771;28;20045;-73
2022/03/24 21:40:43;;;;;;;82.32;48.40;;;;;;;9.29;57.74;103016.25;10419618;28;20033;-72
2022/03/24 21:45:44;;;;;;;81.82;44.42;;;;;;;9.28;58.42;103009.16;10401913;28;20063;-73
2022/03/24 21:50:45;;;;;;;69.80;43.40;;;;;;;9.21;57.40;103026.03;10419817;28;20405;-73
2022/03/24 21:55:45;;;;;;;92.45;47.92;;;;;;;9.09;59.04;103019.84;10418023;28;20103;-72
2022/03/24 22:00:45;;;;;;;78.05;43.45;;;;;;;9.05;64.88;103019.28;10401760;28;20083;-73
2022/03/24 22:05:46;;;;;;;72.82;43.15;;;;;;;9.07;64.87;103028.13;10419022;28;20037;-72
2022/03/24 22:10:46;;;;;;;72.57;44.92;;;;;;;9.05;64.04;103034.63;10419634;28;20614;-73
2022/03/24 22:15:47;;;;;;;75.50;43.92;;;;;;;8.92;60.82;103031.31;10418996;28;20140;-72
2022/03/24 22:20:47;;;;;;;64.22;42.35;;;;;;;8.73;61.00;103037.47;10402056;28;20076;-72
2022/03/24 22:25:47;;;;;;;76.65;40.75;;;;;;;8.68;62.46;103039.69;10417046;28;20381;-73
2022/03/24 22:30:48;;;;;;;61.30;39.95;;;;;;;8.60;60.40;103033.09;10417215;28;20037;-72
2022/03/24 22:35:48;;;;;;;63.85;40.17;;;;;;;8.47;59.69;103040.56;10417590;28;20517;-72
2022/03/24 22:40:49;;;;;;;65.47;42.47;;;;;;;8.35;59.68;103037.00;10417142;28;20033;-73
2022/03/24 22:45:49;;;;;;;67.45;39.83;;;;;;;8.29;59.43;103039.38;10401105;28;20438;-72